Rochdale, Massachusetts
Current Conditions -  °F | °C
As of 5:41 AM on Wednesday 22 Oct 2014 (Local Time) from KORH Reporting Station
Moderate Fog Moderate Fog  
Wind Chill: 42°   Ceiling: 200
Heat Index: 47°   Visibility: 0.5mi
Dew Point: 46°   Wind: 10mph
Humidity: 97%   Direction: 20°NNE
Pressure: 29.99"   Gusts: NA
Location:  42.19°N, 71.91°W
Report Text: KORH 220941Z AUTO 02009KT 1/2SM R11/P6000FT FG VV002 08/08 A2999 RMK AO2 RAB06E29 P0001 T00830078
Loading
Personal Weather Stations






























Interactive Weather Map
Tropical Storm Tracking
New forecast layout! Learn more

10-Day Weather Forecast

Advertisements
Track Severe Weather on mobile